Time;durP1;ratioP1;P1;durP2;ratioP2;P2;SDS_P1;SDS_P2;PMS_P1;PMS_P2;Temp;Humidity;BMP_temperature;BMP_pressure;BME280_temperature;BME280_humidity;BME280_pressure;Samples;Min_cycle;Max_cycle;Signal;HPM_P1;HPM_P2
2022/04/22 00:00:09;;;;;;;6.47;4.90;;;14.40;73.50;;;;;;4976344;23;20516;-83
2022/04/22 00:02:38;;;;;;;5.70;5.20;;;14.50;72.60;;;;;;4953269;28;20459;-79
2022/04/22 00:05:05;;;;;;;5.30;4.80;;;14.50;72.40;;;;;;4971420;28;20572;-81
2022/04/22 00:07:31;;;;;;;4.93;4.53;;;14.40;72.90;;;;;;4959746;28;21175;-80
2022/04/22 00:09:58;;;;;;;4.80;4.40;;;14.30;73.10;;;;;;4959204;28;20517;-81
2022/04/22 00:12:26;;;;;;;5.43;4.80;;;14.20;73.70;;;;;;4940977;28;20463;-80
2022/04/22 00:14:53;;;;;;;4.70;4.40;;;14.10;74.40;;;;;;4959437;28;20463;-81
2022/04/22 00:17:20;;;;;;;5.30;4.90;;;14.10;75.00;;;;;;4940808;28;20450;-81
2022/04/22 00:19:47;;;;;;;7.50;4.97;;;14.10;75.30;;;;;;4943981;29;20469;-81
2022/04/22 00:22:14;;;;;;;5.77;5.27;;;14.20;75.40;;;;;;4946279;28;20897;-81
2022/04/22 00:24:40;;;;;;;5.23;4.73;;;14.20;75.10;;;;;;4926216;29;20448;-81
2022/04/22 00:27:08;;;;;;;6.07;5.37;;;14.20;75.60;;;;;;4925272;29;20466;-81
2022/04/22 00:29:35;;;;;;;6.53;5.00;;;14.30;76.10;;;;;;4941181;28;20470;-81
2022/04/22 00:32:03;;;;;;;5.73;5.03;;;14.30;76.20;;;;;;4956743;28;20567;-80
2022/04/22 00:34:30;;;;;;;5.30;4.80;;;14.20;76.60;;;;;;4925950;29;20457;-81
2022/04/22 00:36:57;;;;;;;4.90;4.50;;;14.20;77.00;;;;;;4926808;29;21083;-79
2022/04/22 00:39:24;;;;;;;6.13;5.10;;;14.20;77.10;;;;;;4948947;29;20468;-79
2022/04/22 00:41:51;;;;;;;5.40;4.90;;;14.30;77.00;;;;;;4944168;29;20469;-81
2022/04/22 00:44:18;;;;;;;6.13;5.53;;;14.20;76.40;;;;;;4934121;29;20477;-80
2022/04/22 00:46:46;;;;;;;6.97;6.13;;;14.30;76.30;;;;;;4932415;29;20472;-80
2022/04/22 00:49:12;;;;;;;6.30;5.70;;;14.20;75.80;;;;;;4947706;29;20469;-81
2022/04/22 00:51:39;;;;;;;7.07;5.87;;;14.10;75.80;;;;;;4930781;29;20487;-80
2022/04/22 00:54:08;;;;;;;5.73;5.23;;;14.10;76.10;;;;;;4946250;29;20465;-80
2022/04/22 00:56:35;;;;;;;5.90;4.97;;;14.10;76.50;;;;;;4923614;29;20461;-80
2022/04/22 00:59:03;;;;;;;6.87;6.20;;;14.10;76.60;;;;;;4926927;29;20520;-81
2022/04/22 01:01:33;;;;;;;7.07;5.67;;;14.00;76.70;;;;;;4921348;29;20461;-81
2022/04/22 01:09:47;;;;;;;6.20;5.07;;;13.90;77.90;;;;;;4931894;29;20477;-80
2022/04/22 01:12:16;;;;;;;7.33;5.47;;;13.80;78.10;;;;;;4916172;29;20490;-82
2022/04/22 01:14:44;;;;;;;5.93;5.43;;;13.80;78.50;;;;;;4935882;29;20477;-81
2022/04/22 01:17:12;;;;;;;5.17;4.67;;;13.80;78.80;;;;;;4917559;29;20453;-82
2022/04/22 01:19:39;;;;;;;5.43;4.93;;;14.10;78.90;;;;;;4917437;29;20489;-80
2022/04/22 01:22:07;;;;;;;6.13;5.33;;;13.90;79.40;;;;;;4933726;29;20824;-81
2022/04/22 01:24:34;;;;;;;5.97;5.37;;;13.90;79.30;;;;;;4923575;29;20474;-79
2022/04/22 01:27:03;;;;;;;5.80;5.30;;;13.90;80.10;;;;;;4922651;29;20460;-80
2022/04/22 01:29:33;;;;;;;5.80;5.20;;;13.90;80.60;;;;;;5050993;23;20680;-81
2022/04/22 01:35:22;;;;;;;5.57;5.17;;;13.90;81.00;;;;;;4983978;28;20442;-82
2022/04/22 01:37:49;;;;;;;6.37;5.77;;;13.70;81.20;;;;;;4981393;28;20455;-80
2022/04/22 01:40:17;;;;;;;6.03;5.23;;;13.80;81.90;;;;;;4967708;28;20527;-82
2022/04/22 01:42:45;;;;;;;5.70;5.20;;;13.70;82.20;;;;;;4971094;28;22370;-82
2022/04/22 01:45:12;;;;;;;6.20;5.63;;;13.70;82.60;;;;;;4964806;28;20475;-82
2022/04/22 01:47:40;;;;;;;6.97;6.47;;;13.60;82.40;;;;;;4954857;28;20460;-81
2022/04/22 01:50:08;;;;;;;6.67;5.97;;;13.50;83.10;;;;;;4979596;28;20467;-80
2022/04/22 01:52:40;;;;;;;6.07;5.57;;;13.60;83.90;;;;;;4963697;28;20476;-80
2022/04/22 01:55:08;;;;;;;6.80;6.10;;;13.70;83.90;;;;;;4961644;28;20495;-81
2022/04/22 01:57:36;;;;;;;6.67;6.00;;;13.60;83.90;;;;;;4960619;28;20448;-79
2022/04/22 02:00:06;;;;;;;6.77;6.03;;;13.70;83.70;;;;;;4961656;28;20909;-79
2022/04/22 02:02:33;;;;;;;6.10;5.60;;;13.60;83.80;;;;;;4974657;28;20452;-79
2022/04/22 02:05:00;;;;;;;6.30;5.70;;;13.80;83.70;;;;;;4958876;28;20462;-80
2022/04/22 02:07:28;;;;;;;6.20;5.70;;;13.70;83.70;;;;;;4959673;28;20531;-81
2022/04/22 02:09:55;;;;;;;6.77;5.90;;;13.70;84.20;;;;;;4978234;28;20522;-79
2022/04/22 02:12:22;;;;;;;7.00;5.20;;;13.70;84.40;;;;;;4961330;28;20484;-79
2022/04/22 02:14:51;;;;;;;6.83;6.13;;;13.80;84.90;;;;;;4961778;28;20906;-79
2022/04/22 02:17:18;;;;;;;7.00;6.40;;;13.90;84.00;;;;;;4964696;28;20452;-81
2022/04/22 02:19:45;;;;;;;6.00;5.40;;;13.80;83.60;;;;;;4962352;28;20459;-81
2022/04/22 02:22:14;;;;;;;6.77;6.07;;;13.70;84.10;;;;;;4977014;28;20436;-81
2022/04/22 02:24:41;;;;;;;6.93;6.23;;;13.60;84.80;;;;;;4961950;28;20488;-80
2022/04/22 02:29:54;;;;;;;6.70;6.03;;;13.50;86.00;;;;;;4973544;28;20502;-80
2022/04/22 02:32:22;;;;;;;7.30;6.60;;;13.50;86.80;;;;;;4953020;28;20523;-81
2022/04/22 02:34:50;;;;;;;6.87;6.27;;;13.50;87.20;;;;;;4944769;28;20467;-81
2022/04/22 02:37:18;;;;;;;8.70;7.43;;;13.60;87.10;;;;;;4959148;28;20460;-79
2022/04/22 02:39:45;;;;;;;6.80;6.10;;;13.70;86.40;;;;;;4957078;28;22171;-82
2022/04/22 02:47:44;;;;;;;10.60;7.40;;;13.70;86.70;;;;;;4969421;28;20470;-80
2022/04/22 02:50:10;;;;;;;6.67;6.07;;;13.70;87.30;;;;;;4964287;28;20476;-80
2022/04/22 02:52:37;;;;;;;6.60;6.00;;;13.70;87.30;;;;;;4967023;28;20484;-79
2022/04/22 02:55:04;;;;;;;8.03;7.23;;;13.60;87.00;;;;;;4977543;28;20452;-80
2022/04/22 02:57:30;;;;;;;7.47;6.80;;;13.50;88.10;;;;;;4976436;28;20444;-80
2022/04/22 02:59:57;;;;;;;7.30;6.60;;;13.40;88.50;;;;;;4976533;28;20507;-81
2022/04/22 03:02:24;;;;;;;8.47;6.63;;;13.60;88.50;;;;;;4952235;28;20472;-80
2022/04/22 03:04:53;;;;;;;6.87;6.27;;;13.60;88.40;;;;;;4959365;28;20517;-80
2022/04/22 03:07:22;;;;;;;9.10;6.73;;;13.40;88.70;;;;;;4971677;28;20480;-79
2022/04/22 03:09:49;;;;;;;8.30;7.50;;;13.50;89.50;;;;;;4969605;28;20518;-80
2022/04/22 03:12:16;;;;;;;8.80;7.10;;;13.30;89.70;;;;;;4974447;28;20464;-79
2022/04/22 03:14:44;;;;;;;7.90;7.13;;;13.30;90.30;;;;;;4961972;28;20468;-80
2022/04/22 03:17:11;;;;;;;7.13;6.43;;;13.20;90.70;;;;;;4961756;28;20479;-80
2022/04/22 03:19:39;;;;;;;9.60;8.33;;;13.40;90.80;;;;;;4962985;28;20475;-80
2022/04/22 03:22:06;;;;;;;8.37;7.60;;;13.30;90.60;;;;;;4974232;28;20452;-80
2022/04/22 03:24:33;;;;;;;10.17;7.87;;;13.40;90.40;;;;;;4966649;28;20945;-79
2022/04/22 03:27:04;;;;;;;9.77;7.40;;;13.40;90.30;;;;;;4940477;28;20490;-82
2022/04/22 03:29:32;;;;;;;8.37;7.37;;;13.10;90.70;;;;;;4946505;23;20592;-82
2022/04/22 03:31:58;;;;;;;7.00;6.37;;;13.00;90.90;;;;;;4945002;28;20496;-81
2022/04/22 03:34:25;;;;;;;6.90;6.20;;;13.20;90.60;;;;;;4946043;28;20456;-82
2022/04/22 03:36:52;;;;;;;7.63;6.93;;;13.00;90.50;;;;;;4947882;28;20445;-81
2022/04/22 03:39:20;;;;;;;7.13;6.53;;;12.90;90.60;;;;;;4956676;28;20581;-80
2022/04/22 03:41:47;;;;;;;8.50;7.10;;;13.10;90.80;;;;;;4959516;28;20454;-80
2022/04/22 03:44:15;;;;;;;7.00;6.30;;;13.00;90.60;;;;;;4962793;28;20541;-81
2022/04/22 03:46:43;;;;;;;7.80;7.00;;;12.90;90.80;;;;;;4963339;29;20476;-80
2022/04/22 03:49:10;;;;;;;7.10;6.40;;;12.80;91.10;;;;;;4977278;28;20537;-81
2022/04/22 03:51:37;;;;;;;6.90;6.23;;;12.80;91.40;;;;;;4967884;28;20495;-81
2022/04/22 03:54:05;;;;;;;7.30;6.70;;;12.80;91.40;;;;;;4967789;28;20453;-80
2022/04/22 03:59:18;;;;;;;7.97;7.00;;;12.70;91.30;;;;;;5034805;23;20563;-81
2022/04/22 04:01:45;;;;;;;7.43;6.73;;;12.80;91.50;;;;;;4996410;28;20479;-81
2022/04/22 04:04:11;;;;;;;7.90;7.10;;;12.70;91.40;;;;;;4984774;28;20481;-81
2022/04/22 04:06:39;;;;;;;9.10;7.80;;;12.90;91.60;;;;;;4978304;28;20467;-81
2022/04/22 04:17:33;;;;;;;8.73;7.53;;;12.70;91.10;;;;;;4977940;28;20459;-81
2022/04/22 04:25:32;;;;;;;7.40;6.70;;;12.50;91.80;;;;;;4977687;28;20467;-81
2022/04/22 04:28:00;;;;;;;8.63;7.83;;;12.40;92.10;;;;;;4973356;28;21582;-81
2022/04/22 04:30:27;;;;;;;8.23;7.53;;;12.50;92.40;;;;;;4995048;28;20572;-81
2022/04/22 04:32:55;;;;;;;8.10;7.30;;;12.60;92.30;;;;;;4981110;28;20493;-82
2022/04/22 04:35:22;;;;;;;9.87;8.57;;;12.70;92.10;;;;;;4981923;28;20547;-81
2022/04/22 04:37:49;;;;;;;9.67;8.20;;;12.80;92.00;;;;;;4989060;28;20474;-81
2022/04/22 04:40:16;;;;;;;9.60;8.30;;;12.70;92.00;;;;;;5010855;28;20547;-81
2022/04/22 04:42:43;;;;;;;11.53;8.77;;;12.50;92.10;;;;;;4993463;28;20470;-81
2022/04/22 04:45:10;;;;;;;10.43;7.30;;;12.40;92.60;;;;;;4997680;28;20553;-81
2022/04/22 04:47:40;;;;;;;9.53;8.63;;;12.50;93.00;;;;;;4996760;28;20451;-80
2022/04/22 04:50:08;;;;;;;8.93;8.03;;;12.60;92.90;;;;;;4997219;28;20458;-81
2022/04/22 04:52:37;;;;;;;9.27;8.37;;;12.60;92.70;;;;;;4996163;28;20554;-80
2022/04/22 04:55:11;;;;;;;8.80;8.00;;;12.50;92.90;;;;;;4997624;28;20446;-80
2022/04/22 04:57:38;;;;;;;9.27;8.33;;;12.60;93.30;;;;;;4998892;28;20446;-80
2022/04/22 05:00:06;;;;;;;9.00;7.80;;;12.60;93.20;;;;;;4993641;28;20478;-81
2022/04/22 05:02:33;;;;;;;9.03;8.00;;;12.50;93.60;;;;;;4985020;28;20453;-81
2022/04/22 05:05:00;;;;;;;9.13;8.13;;;12.50;93.90;;;;;;4988025;28;20465;-81
2022/04/22 05:07:26;;;;;;;9.50;8.00;;;12.50;94.00;;;;;;4982006;28;20455;-79
2022/04/22 05:09:54;;;;;;;9.50;8.60;;;12.60;94.00;;;;;;4987555;28;20470;-82
2022/04/22 05:12:20;;;;;;;9.40;8.10;;;12.50;93.90;;;;;;4982427;28;20491;-81
2022/04/22 05:14:47;;;;;;;10.10;9.10;;;12.60;93.90;;;;;;4982313;28;20459;-82
2022/04/22 05:17:14;;;;;;;10.63;9.07;;;12.60;94.10;;;;;;4981843;28;20463;-81
2022/04/22 05:19:41;;;;;;;10.30;8.87;;;12.60;94.20;;;;;;4982215;28;20473;-81
2022/04/22 05:22:08;;;;;;;9.47;8.10;;;12.70;94.20;;;;;;4978030;28;20463;-80
2022/04/22 05:24:35;;;;;;;16.67;9.47;;;12.70;93.90;;;;;;4982420;28;20463;-81
2022/04/22 05:27:04;;;;;;;11.93;9.07;;;12.70;93.80;;;;;;4978988;28;20474;-81
2022/04/22 05:35:07;;;;;;;10.60;9.50;;;12.80;92.70;;;;;;4985157;28;20494;-81
2022/04/22 05:37:52;;;;;;;11.13;10.03;;;13.00;92.90;;;;;;4981583;28;20462;-82
2022/04/22 05:40:22;;;;;;;14.23;9.90;;;13.10;92.30;;;;;;4984723;28;20482;-81
2022/04/22 05:42:50;;;;;;;11.67;9.47;;;13.30;91.60;;;;;;4983596;28;20463;-82
2022/04/22 05:45:19;;;;;;;15.90;11.37;;;13.20;91.40;;;;;;4982658;28;20542;-81
2022/04/22 05:47:46;;;;;;;14.07;10.63;;;13.30;91.00;;;;;;4979572;28;20467;-80
2022/04/22 05:50:14;;;;;;;14.53;11.13;;;13.20;91.10;;;;;;4979016;28;20491;-81
2022/04/22 05:52:42;;;;;;;10.70;9.40;;;13.10;91.40;;;;;;4976604;28;20570;-81
2022/04/22 05:55:12;;;;;;;12.13;10.50;;;13.00;91.50;;;;;;4979390;28;21628;-81
2022/04/22 05:57:39;;;;;;;11.20;9.47;;;13.10;91.90;;;;;;4978452;28;20459;-81
2022/04/22 06:00:08;;;;;;;11.77;9.83;;;13.30;91.60;;;;;;4982475;28;20606;-81
2022/04/22 06:02:35;;;;;;;11.70;9.40;;;13.30;91.50;;;;;;4982027;28;20458;-82
2022/04/22 06:05:03;;;;;;;11.40;10.20;;;13.10;91.40;;;;;;4996454;28;20455;-82
2022/04/22 06:07:30;;;;;;;11.67;8.77;;;14.00;92.60;;;;;;4981276;28;20478;-81
2022/04/22 06:12:43;;;;;;;13.97;10.33;;;20.20;71.10;;;;;;4984988;28;20505;-82
2022/04/22 06:15:10;;;;;;;11.27;9.90;;;21.90;60.30;;;;;;4987227;28;20457;-81
2022/04/22 06:17:38;;;;;;;10.67;8.93;;;23.50;55.00;;;;;;4987457;28;20542;-80
2022/04/22 06:20:06;;;;;;;11.93;9.73;;;24.20;52.10;;;;;;4978905;28;20518;-80
2022/04/22 06:22:35;;;;;;;10.80;9.47;;;24.20;50.70;;;;;;4977191;28;20975;-82
2022/04/22 06:25:03;;;;;;;11.60;10.40;;;25.20;49.70;;;;;;4982275;28;20543;-81
2022/04/22 06:27:38;;;;;;;9.90;8.93;;;26.00;47.40;;;;;;4979476;28;20458;-81
2022/04/22 06:30:11;;;;;;;13.30;12.00;;;25.30;45.60;;;;;;4978811;28;20488;-81
2022/04/22 06:32:41;;;;;;;9.40;8.50;;;25.90;46.10;;;;;;4981635;28;20487;-79
2022/04/22 06:35:09;;;;;;;10.50;9.43;;;26.10;45.10;;;;;;4998249;28;20459;-80
2022/04/22 06:37:38;;;;;;;12.40;9.90;;;26.80;43.60;;;;;;4977990;28;20474;-80
2022/04/22 06:45:47;;;;;;;10.50;9.50;;;26.70;41.70;;;;;;4976123;28;22172;-80
2022/04/22 06:48:32;;;;;;;11.10;10.00;;;23.90;43.40;;;;;;4973559;28;20817;-82
2022/04/22 06:51:17;;;;;;;11.27;10.00;;;21.90;46.40;;;;;;4974388;28;20467;-81
2022/04/22 06:53:46;;;;;;;10.53;9.53;;;20.60;49.70;;;;;;4976066;28;21031;-79
2022/04/22 06:56:13;;;;;;;10.93;9.83;;;21.30;50.00;;;;;;4974276;28;20455;-81
2022/04/22 06:58:41;;;;;;;10.63;9.63;;;23.10;48.80;;;;;;4978265;28;20577;-80
2022/04/22 07:01:08;;;;;;;10.80;9.80;;;24.20;46.30;;;;;;4974006;28;20476;-82
2022/04/22 07:03:57;;;;;;;12.40;11.10;;;25.20;45.50;;;;;;4975932;28;20471;-81
2022/04/22 07:06:25;;;;;;;12.53;10.97;;;23.90;45.00;;;;;;4991766;28;20467;-81
2022/04/22 07:08:54;;;;;;;11.93;10.83;;;21.90;47.80;;;;;;4976462;28;20599;-81
2022/04/22 07:11:27;;;;;;;12.37;11.07;;;20.00;50.50;;;;;;4979789;28;20451;-81
2022/04/22 07:13:55;;;;;;;16.10;12.37;;;18.70;54.20;;;;;;4975786;28;20861;-81
2022/04/22 07:16:22;;;;;;;12.73;11.40;;;17.80;56.80;;;;;;4978302;28;20454;-82
2022/04/22 07:21:19;;;;;;;11.73;10.53;;;16.50;62.70;;;;;;4957949;28;20484;-81
2022/04/22 07:23:46;;;;;;;12.10;10.93;;;16.20;65.90;;;;;;4969635;28;20540;-82
2022/04/22 07:26:16;;;;;;;10.87;9.80;;;16.30;69.60;;;;;;4985788;28;20424;-81
2022/04/22 07:28:56;;;;;;;11.77;10.57;;;16.20;69.50;;;;;;5019593;23;20557;-82
2022/04/22 07:31:29;;;;;;;11.20;10.10;;;16.20;70.70;;;;;;4998227;28;20458;-80
2022/04/22 07:34:02;;;;;;;11.70;10.50;;;16.50;71.60;;;;;;5028320;28;20513;-81
2022/04/22 07:36:29;;;;;;;11.43;9.90;;;17.20;71.50;;;;;;5009552;28;20509;-81
2022/04/22 07:38:56;;;;;;;13.23;10.53;;;19.60;66.10;;;;;;4995478;28;20859;-80
2022/04/22 07:41:25;;;;;;;12.00;10.80;;;22.60;57.10;;;;;;4989792;28;20482;-82
2022/04/22 07:46:48;;;;;;;11.63;10.53;;;24.90;50.00;;;;;;5004389;28;20449;-81
2022/04/22 07:49:16;;;;;;;12.17;11.00;;;25.70;47.90;;;;;;5141318;23;21174;-81
2022/04/22 07:51:42;;;;;;;11.40;10.40;;;26.30;46.20;;;;;;4985144;28;20443;-81
2022/04/22 07:54:09;;;;;;;11.63;10.43;;;26.10;45.80;;;;;;4984532;28;20482;-79
2022/04/22 07:56:36;;;;;;;11.27;10.23;;;26.30;45.00;;;;;;4991387;28;20473;-81
2022/04/22 07:59:03;;;;;;;11.00;10.00;;;27.20;43.70;;;;;;4990024;28;20501;-81
2022/04/22 08:01:29;;;;;;;10.60;9.70;;;27.10;42.50;;;;;;4984191;28;20447;-82
2022/04/22 08:03:58;;;;;;;10.30;9.40;;;26.70;43.10;;;;;;4987374;28;20463;-81
2022/04/22 08:06:25;;;;;;;9.77;8.87;;;26.00;43.50;;;;;;4985083;28;21117;-80
2022/04/22 08:08:52;;;;;;;10.13;9.20;;;26.70;42.40;;;;;;4985279;28;20878;-82
2022/04/22 08:11:20;;;;;;;9.93;9.10;;;26.30;42.40;;;;;;4986379;28;20485;-82
2022/04/22 08:13:46;;;;;;;11.03;9.93;;;25.20;42.90;;;;;;4982241;28;20486;-82
2022/04/22 08:16:15;;;;;;;11.03;10.13;;;23.10;45.10;;;;;;4984267;28;20450;-82
2022/04/22 08:18:42;;;;;;;10.67;9.60;;;22.30;47.90;;;;;;4987233;28;20447;-82
2022/04/22 08:21:10;;;;;;;11.17;10.17;;;22.00;48.80;;;;;;4985006;28;22484;-81
2022/04/22 08:23:40;;;;;;;9.90;9.10;;;22.40;49.20;;;;;;4987674;28;20521;-82
2022/04/22 08:26:07;;;;;;;8.67;7.77;;;23.20;48.90;;;;;;4986865;28;20451;-82
2022/04/22 08:28:33;;;;;;;9.40;8.50;;;24.30;45.40;;;;;;4984692;28;20473;-82
2022/04/22 08:31:00;;;;;;;7.27;6.67;;;24.50;44.10;;;;;;4985803;28;22032;-82
2022/04/22 08:33:27;;;;;;;8.33;7.53;;;22.50;44.30;;;;;;4984758;28;20482;-80
2022/04/22 08:35:56;;;;;;;8.93;7.30;;;20.80;47.10;;;;;;4989267;28;20972;-81
2022/04/22 08:38:24;;;;;;;9.60;7.63;;;19.50;50.10;;;;;;4983630;28;20463;-82
2022/04/22 08:40:52;;;;;;;8.30;7.50;;;19.70;49.80;;;;;;4984996;28;20842;-81
2022/04/22 08:43:21;;;;;;;9.00;8.10;;;19.30;50.40;;;;;;4985376;28;20463;-81
2022/04/22 08:45:49;;;;;;;8.73;7.77;;;20.20;49.90;;;;;;4984671;28;20470;-82
2022/04/22 08:51:04;;;;;;;8.07;7.17;;;19.90;50.00;;;;;;4998362;28;20475;-82
2022/04/22 08:53:39;;;;;;;7.83;7.07;;;19.10;51.50;;;;;;4999525;28;20475;-80
2022/04/22 08:56:09;;;;;;;8.00;7.30;;;18.30;52.30;;;;;;4998200;28;20600;-79
2022/04/22 08:58:36;;;;;;;6.80;6.10;;;17.80;53.90;;;;;;4992005;28;20497;-81
2022/04/22 09:01:03;;;;;;;7.63;6.63;;;17.60;54.30;;;;;;4987981;28;20455;-82
2022/04/22 09:03:31;;;;;;;7.30;6.60;;;17.40;54.90;;;;;;4985138;28;20477;-82
2022/04/22 09:05:59;;;;;;;7.67;6.97;;;17.30;55.30;;;;;;4989611;28;20819;-80
2022/04/22 09:08:28;;;;;;;7.70;7.00;;;17.00;55.10;;;;;;4993037;28;20550;-81
2022/04/22 09:10:57;;;;;;;9.40;6.90;;;16.70;55.80;;;;;;4994444;28;20521;-81
2022/04/22 09:13:26;;;;;;;8.17;6.53;;;16.80;56.50;;;;;;4993705;28;20489;-81
2022/04/22 09:15:54;;;;;;;13.00;7.07;;;16.90;56.00;;;;;;4991657;28;20473;-82
2022/04/22 09:18:39;;;;;;;7.37;6.20;;;16.90;56.50;;;;;;4995505;28;20462;-80
2022/04/22 09:21:16;;;;;;;7.33;6.60;;;17.50;54.90;;;;;;4999087;28;20451;-80
2022/04/22 09:23:45;;;;;;;7.20;5.60;;;18.70;52.70;;;;;;5004867;28;20458;-81
2022/04/22 09:26:23;;;;;;;6.83;6.10;;;18.90;51.50;;;;;;5005897;28;20531;-81
2022/04/22 09:29:02;;;;;;;7.00;6.30;;;18.60;51.80;;;;;;5006124;28;20447;-82
2022/04/22 09:31:29;;;;;;;7.70;6.90;;;18.10;52.50;;;;;;5005679;28;20459;-81
2022/04/22 09:33:56;;;;;;;7.07;6.37;;;17.70;53.60;;;;;;5005077;28;20471;-82
2022/04/22 09:45:00;;;;;;;7.40;6.47;;;16.80;55.50;;;;;;4982737;28;20467;-82
2022/04/22 09:47:32;;;;;;;6.87;6.23;;;16.80;55.60;;;;;;4996480;28;20497;-80
2022/04/22 09:50:01;;;;;;;6.90;6.20;;;16.80;55.10;;;;;;4997955;28;20490;-81
2022/04/22 09:52:30;;;;;;;7.17;6.47;;;17.10;54.80;;;;;;4983251;28;21655;-81
2022/04/22 09:54:59;;;;;;;7.93;7.13;;;17.20;55.00;;;;;;4982136;28;21167;-81
2022/04/22 09:57:54;;;;;;;6.60;5.97;;;17.30;54.20;;;;;;4983711;28;20447;-81
2022/04/22 10:00:22;;;;;;;7.37;6.67;;;17.10;54.30;;;;;;4988252;28;20462;-82
2022/04/22 10:02:51;;;;;;;7.00;6.10;;;16.80;54.60;;;;;;4984184;28;21516;-81
2022/04/22 10:05:26;;;;;;;6.50;5.90;;;17.00;54.80;;;;;;4988903;28;20473;-80
2022/04/22 10:07:55;;;;;;;7.20;6.53;;;17.00;54.70;;;;;;4984912;28;20461;-81
2022/04/22 10:10:32;;;;;;;6.70;6.00;;;18.30;53.20;;;;;;4983719;28;20490;-81
2022/04/22 10:13:01;;;;;;;6.70;6.20;;;19.30;50.70;;;;;;4979879;28;20537;-80
2022/04/22 10:15:31;;;;;;;6.93;6.33;;;19.90;49.60;;;;;;4986279;28;20888;-82
2022/04/22 10:17:59;;;;;;;7.43;6.73;;;20.40;48.60;;;;;;4978908;28;21788;-81
2022/04/22 10:20:27;;;;;;;8.00;7.30;;;21.20;46.70;;;;;;4976666;28;20507;-81
2022/04/22 10:22:54;;;;;;;7.27;6.67;;;21.30;46.10;;;;;;4980568;28;20963;-80
2022/04/22 10:25:20;;;;;;;7.60;6.90;;;22.00;45.90;;;;;;4983446;28;20443;-81
2022/04/22 10:27:50;;;;;;;7.37;6.67;;;22.20;44.60;;;;;;4981801;28;21177;-80
2022/04/22 10:30:17;;;;;;;6.93;6.33;;;22.40;43.90;;;;;;4980035;28;20984;-80
2022/04/22 10:32:48;;;;;;;7.57;6.97;;;22.80;43.00;;;;;;4982937;28;20486;-80
2022/04/22 10:35:14;;;;;;;8.33;7.53;;;22.30;43.30;;;;;;4980744;28;20455;-80
2022/04/22 10:37:41;;;;;;;7.87;7.07;;;21.70;43.60;;;;;;4978770;28;20483;-80
2022/04/22 10:40:22;;;;;;;7.67;6.97;;;21.30;45.00;;;;;;4982802;28;20508;-80
2022/04/22 10:42:55;;;;;;;7.43;6.63;;;22.20;44.30;;;;;;4983592;28;20474;-80
2022/04/22 10:48:19;;;;;;;7.63;6.83;;;21.80;43.90;;;;;;4980949;28;20471;-82
2022/04/22 10:51:09;;;;;;;6.80;6.30;;;21.20;44.50;;;;;;4981325;28;20474;-82
2022/04/22 10:53:46;;;;;;;7.87;7.23;;;20.80;46.10;;;;;;4979177;28;20479;-81
2022/04/22 10:56:25;;;;;;;7.57;6.93;;;21.00;46.80;;;;;;4981462;28;20486;-82
2022/04/22 10:59:15;;;;;;;7.87;7.07;;;21.50;45.50;;;;;;4982676;28;20462;-83
2022/04/22 11:01:43;;;;;;;7.60;6.57;;;22.00;45.20;;;;;;4985913;28;20462;-81
2022/04/22 11:04:28;;;;;;;7.60;6.90;;;23.10;44.10;;;;;;5001124;28;20522;-82
2022/04/22 11:06:56;;;;;;;8.43;6.50;;;23.00;43.50;;;;;;4999178;28;20505;-80
2022/04/22 11:09:27;;;;;;;7.90;7.20;;;23.00;43.70;;;;;;4992829;28;20461;-80
2022/04/22 11:11:55;;;;;;;7.27;6.57;;;23.10;43.20;;;;;;5007701;28;20554;-81
2022/04/22 11:14:27;;;;;;;8.47;7.80;;;22.30;43.20;;;;;;5008575;28;20471;-80
2022/04/22 11:17:15;;;;;;;8.63;8.03;;;22.10;43.80;;;;;;4993392;28;20447;-82
2022/04/22 11:19:59;;;;;;;7.67;7.17;;;22.40;44.00;;;;;;4988479;28;20481;-81
2022/04/22 11:22:58;;;;;;;7.63;6.93;;;22.10;43.50;;;;;;4988223;28;20486;-81
2022/04/22 11:25:27;;;;;;;8.63;7.90;;;21.70;44.00;;;;;;4987156;28;20447;-80
2022/04/22 11:27:55;;;;;;;6.73;6.23;;;21.80;44.10;;;;;;4988615;28;20447;-81
2022/04/22 11:30:22;;;;;;;11.57;7.50;;;22.10;44.60;;;;;;5001407;28;20471;-82
2022/04/22 11:32:56;;;;;;;8.70;8.00;;;22.00;44.00;;;;;;4988228;28;20530;-82
2022/04/22 11:35:37;;;;;;;8.37;7.67;;;21.30;44.20;;;;;;4985323;28;20451;-82
2022/04/22 11:38:04;;;;;;;8.27;7.57;;;21.00;44.90;;;;;;4987708;28;20445;-82
2022/04/22 11:40:38;;;;;;;8.93;8.13;;;20.50;45.10;;;;;;5002657;28;20477;-81
2022/04/22 11:43:14;;;;;;;8.60;7.90;;;20.50;46.20;;;;;;4986399;28;20449;-81
2022/04/22 11:45:44;;;;;;;8.07;7.43;;;20.30;46.40;;;;;;4990095;28;20477;-83
2022/04/22 11:48:14;;;;;;;7.30;6.63;;;20.30;46.30;;;;;;4991513;28;20459;-82
2022/04/22 11:50:45;;;;;;;8.23;7.40;;;19.90;46.90;;;;;;4991155;28;20521;-83
2022/04/22 11:53:20;;;;;;;8.53;7.67;;;19.80;47.80;;;;;;4989683;28;20479;-83
2022/04/22 11:55:58;;;;;;;7.53;6.90;;;19.70;48.40;;;;;;4992496;28;20443;-83
2022/04/22 12:07:02;;;;;;;7.70;7.00;;;20.20;48.10;;;;;;4970645;28;21030;-84
2022/04/22 12:09:29;;;;;;;7.07;6.47;;;20.70;47.10;;;;;;4969699;28;20477;-80
2022/04/22 12:12:06;;;;;;;8.23;7.40;;;21.20;46.20;;;;;;4957051;28;20751;-81
2022/04/22 12:15:06;;;;;;;8.50;7.80;;;22.10;45.50;;;;;;4961559;28;20479;-83
2022/04/22 12:20:40;;;;;;;7.87;7.27;;;23.10;42.00;;;;;;4969901;28;20527;-83
2022/04/22 12:23:22;;;;;;;6.50;5.90;;;22.80;42.20;;;;;;4969817;28;20460;-82
2022/04/22 12:25:58;;;;;;;8.60;7.70;;;22.80;42.40;;;;;;4970686;28;20444;-84
2022/04/22 12:28:26;;;;;;;7.57;6.63;;;22.20;42.60;;;;;;4971326;28;20550;-84
2022/04/22 12:30:53;;;;;;;8.70;7.90;;;21.60;43.60;;;;;;4957368;28;20478;-84
2022/04/22 12:33:23;;;;;;;8.23;7.40;;;21.70;44.50;;;;;;4970608;28;20453;-84
2022/04/22 12:36:05;;;;;;;8.00;7.30;;;21.80;44.00;;;;;;4955931;28;20459;-82
2022/04/22 12:38:34;;;;;;;7.47;6.77;;;21.60;44.30;;;;;;4970649;28;20483;-83
2022/04/22 12:41:01;;;;;;;7.27;6.67;;;21.50;43.90;;;;;;4975329;28;20420;-84
2022/04/22 12:43:34;;;;;;;7.73;7.03;;;21.20;44.10;;;;;;4975143;28;20420;-83
2022/04/22 12:52:11;;;;;;;7.77;7.07;;;21.70;44.70;;;;;;4963943;28;20471;-82
2022/04/22 12:54:41;;;;;;;11.60;7.80;;;22.40;44.30;;;;;;4958208;28;21402;-81
2022/04/22 12:57:22;;;;;;;6.87;6.27;;;22.90;43.40;;;;;;4970535;28;20722;-81
2022/04/22 12:59:53;;;;;;;6.60;6.10;;;23.30;42.40;;;;;;4953224;28;21022;-81
2022/04/22 13:02:29;;;;;;;6.60;5.90;;;22.80;41.50;;;;;;4973447;28;20447;-81
2022/04/22 13:04:59;;;;;;;7.33;6.80;;;22.80;42.20;;;;;;4970649;28;20451;-81
2022/04/22 13:07:40;;;;;;;9.07;6.50;;;23.70;40.10;;;;;;4958332;28;20448;-79
2022/04/22 13:10:10;;;;;;;9.40;8.40;;;23.30;39.80;;;;;;4954305;28;20479;-82
2022/04/22 13:12:39;;;;;;;6.90;6.40;;;23.60;40.20;;;;;;4972260;28;20452;-80
2022/04/22 13:15:08;;;;;;;7.40;6.80;;;23.00;40.30;;;;;;4958195;28;20495;-82
2022/04/22 13:17:43;;;;;;;7.03;6.33;;;22.30;40.90;;;;;;4976354;28;20456;-82
2022/04/22 13:20:12;;;;;;;6.47;5.97;;;22.30;41.40;;;;;;4979553;28;20493;-80
2022/04/22 13:22:40;;;;;;;6.70;6.20;;;23.00;40.80;;;;;;4973181;28;20444;-80
2022/04/22 13:25:10;;;;;;;6.60;5.93;;;23.00;40.50;;;;;;4970033;28;20470;-81
2022/04/22 13:27:40;;;;;;;6.33;5.70;;;22.80;40.80;;;;;;4972708;28;20468;-82
2022/04/22 13:30:17;;;;;;;6.53;5.90;;;22.70;41.70;;;;;;4960759;28;20487;-80
2022/04/22 13:32:44;;;;;;;7.17;5.57;;;23.60;40.70;;;;;;4975642;28;20475;-81
2022/04/22 13:35:11;;;;;;;6.77;6.23;;;23.10;40.30;;;;;;4978158;28;20487;-80
2022/04/22 13:37:38;;;;;;;7.10;6.40;;;23.00;40.60;;;;;;4975409;28;20470;-81
2022/04/22 13:40:06;;;;;;;6.60;6.10;;;22.80;41.50;;;;;;4969482;28;20468;-81
2022/04/22 13:42:34;;;;;;;6.63;6.13;;;22.30;42.90;;;;;;4953801;28;20884;-81
2022/04/22 13:53:17;;;;;;;6.83;6.27;;;21.90;45.90;;;;;;4973286;28;21036;-79
2022/04/22 13:55:44;;;;;;;6.83;6.23;;;22.40;45.70;;;;;;4968087;28;20489;-80
2022/04/22 13:58:11;;;;;;;7.20;6.60;;;22.50;45.90;;;;;;4968297;28;20451;-82
2022/04/22 14:00:38;;;;;;;7.27;6.67;;;22.30;45.90;;;;;;4969405;28;22433;-81
2022/04/22 14:03:05;;;;;;;6.57;6.07;;;21.80;46.20;;;;;;4970813;28;20448;-80
2022/04/22 14:05:32;;;;;;;6.23;5.83;;;21.70;45.90;;;;;;4951359;28;20476;-81
2022/04/22 14:07:59;;;;;;;7.17;6.57;;;21.80;46.30;;;;;;4966289;28;20460;-81
2022/04/22 14:10:26;;;;;;;6.17;5.77;;;21.80;46.50;;;;;;4972868;28;20468;-80
2022/04/22 14:12:53;;;;;;;6.57;6.07;;;21.80;46.10;;;;;;4970772;28;20841;-79
2022/04/22 14:15:20;;;;;;;6.63;6.10;;;22.10;46.30;;;;;;4969360;28;20483;-81
2022/04/22 14:17:48;;;;;;;6.80;6.20;;;22.20;45.90;;;;;;4969740;28;20460;-81
2022/04/22 14:20:15;;;;;;;6.87;6.17;;;22.10;46.50;;;;;;4974124;28;20468;-81
2022/04/22 14:22:41;;;;;;;7.07;6.50;;;21.90;46.80;;;;;;4960131;28;20456;-81
2022/04/22 14:25:09;;;;;;;6.70;6.20;;;21.80;45.70;;;;;;4974782;28;20520;-79
2022/04/22 14:27:36;;;;;;;7.73;7.03;;;21.60;45.60;;;;;;4974674;28;20444;-80